sensor_id;sensor_type;location;lat;lon;timestamp;P1;durP1;ratioP1;P2;durP2;ratioP2
40501;SDS011;29631;49.168;9.848;2022-11-18T00:01:09;1.17;;;0.52;;
40501;SDS011;29631;49.168;9.848;2022-11-18T00:03:41;0.95;;;0.75;;
40501;SDS011;29631;49.168;9.848;2022-11-18T00:06:12;0.40;;;0.40;;
40501;SDS011;29631;49.168;9.848;2022-11-18T00:08:43;0.60;;;0.60;;
40501;SDS011;29631;49.168;9.848;2022-11-18T00:11:10;0.50;;;0.50;;
40501;SDS011;29631;49.168;9.848;2022-11-18T00:14:01;0.68;;;0.68;;
40501;SDS011;29631;49.168;9.848;2022-11-18T00:16:51;0.77;;;0.75;;
40501;SDS011;29631;49.168;9.848;2022-11-18T00:19:30;0.60;;;0.60;;
40501;SDS011;29631;49.168;9.848;2022-11-18T00:22:01;0.40;;;0.40;;
40501;SDS011;29631;49.168;9.848;2022-11-18T00:24:29;0.68;;;0.68;;
40501;SDS011;29631;49.168;9.848;2022-11-18T00:26:55;0.60;;;0.60;;
40501;SDS011;29631;49.168;9.848;2022-11-18T00:29:22;0.75;;;0.75;;
40501;SDS011;29631;49.168;9.848;2022-11-18T00:31:50;0.60;;;0.60;;
40501;SDS011;29631;49.168;9.848;2022-11-18T00:34:16;0.80;;;0.47;;
40501;SDS011;29631;49.168;9.848;2022-11-18T00:36:43;0.57;;;0.57;;
40501;SDS011;29631;49.168;9.848;2022-11-18T00:39:10;0.70;;;0.70;;
40501;SDS011;29631;49.168;9.848;2022-11-18T00:41:38;0.75;;;0.68;;
40501;SDS011;29631;49.168;9.848;2022-11-18T00:44:23;1.25;;;0.50;;
40501;SDS011;29631;49.168;9.848;2022-11-18T00:46:49;0.50;;;0.50;;
40501;SDS011;29631;49.168;9.848;2022-11-18T00:49:14;0.47;;;0.47;;
40501;SDS011;29631;49.168;9.848;2022-11-18T00:51:40;0.65;;;0.50;;
40501;SDS011;29631;49.168;9.848;2022-11-18T00:54:06;0.63;;;0.63;;
40501;SDS011;29631;49.168;9.848;2022-11-18T00:56:32;0.70;;;0.70;;
40501;SDS011;29631;49.168;9.848;2022-11-18T00:58:57;0.60;;;0.60;;
40501;SDS011;29631;49.168;9.848;2022-11-18T01:01:24;0.47;;;0.43;;
40501;SDS011;29631;49.168;9.848;2022-11-18T01:03:50;0.60;;;0.60;;
40501;SDS011;29631;49.168;9.848;2022-11-18T01:06:16;0.60;;;0.60;;
40501;SDS011;29631;49.168;9.848;2022-11-18T01:08:41;1.30;;;0.50;;
40501;SDS011;29631;49.168;9.848;2022-11-18T01:11:07;0.60;;;0.60;;
40501;SDS011;29631;49.168;9.848;2022-11-18T01:13:52;0.65;;;0.60;;
40501;SDS011;29631;49.168;9.848;2022-11-18T01:16:19;0.60;;;0.60;;
40501;SDS011;29631;49.168;9.848;2022-11-18T01:18:47;0.65;;;0.65;;
40501;SDS011;29631;49.168;9.848;2022-11-18T01:21:13;0.50;;;0.50;;
40501;SDS011;29631;49.168;9.848;2022-11-18T01:23:39;0.47;;;0.47;;
40501;SDS011;29631;49.168;9.848;2022-11-18T01:26:06;0.43;;;0.43;;
40501;SDS011;29631;49.168;9.848;2022-11-18T01:28:35;0.60;;;0.60;;
40501;SDS011;29631;49.168;9.848;2022-11-18T01:31:02;0.65;;;0.65;;
40501;SDS011;29631;49.168;9.848;2022-11-18T01:33:30;0.60;;;0.60;;
40501;SDS011;29631;49.168;9.848;2022-11-18T01:35:56;0.50;;;0.50;;
40501;SDS011;29631;49.168;9.848;2022-11-18T01:38:22;0.50;;;0.50;;
40501;SDS011;29631;49.168;9.848;2022-11-18T01:40:48;0.60;;;0.60;;
40501;SDS011;29631;49.168;9.848;2022-11-18T01:43:15;0.70;;;0.70;;
40501;SDS011;29631;49.168;9.848;2022-11-18T01:45:47;0.60;;;0.60;;
40501;SDS011;29631;49.168;9.848;2022-11-18T01:50:53;0.68;;;0.68;;
40501;SDS011;29631;49.168;9.848;2022-11-18T01:53:27;0.70;;;0.70;;
40501;SDS011;29631;49.168;9.848;2022-11-18T01:55:59;0.70;;;0.70;;
40501;SDS011;29631;49.168;9.848;2022-11-18T01:58:33;0.60;;;0.60;;
40501;SDS011;29631;49.168;9.848;2022-11-18T02:01:16;0.63;;;0.63;;
40501;SDS011;29631;49.168;9.848;2022-11-18T02:03:42;0.70;;;0.70;;
40501;SDS011;29631;49.168;9.848;2022-11-18T02:06:10;4.65;;;0.73;;
40501;SDS011;29631;49.168;9.848;2022-11-18T02:08:37;0.70;;;0.70;;
40501;SDS011;29631;49.168;9.848;2022-11-18T02:11:04;1.50;;;0.70;;
40501;SDS011;29631;49.168;9.848;2022-11-18T02:13:56;1.20;;;0.40;;
40501;SDS011;29631;49.168;9.848;2022-11-18T02:16:26;0.60;;;0.60;;
40501;SDS011;29631;49.168;9.848;2022-11-18T02:30:41;0.98;;;0.80;;
40501;SDS011;29631;49.168;9.848;2022-11-18T02:39:01;1.75;;;0.70;;
40501;SDS011;29631;49.168;9.848;2022-11-18T02:41:33;0.70;;;0.70;;
40501;SDS011;29631;49.168;9.848;2022-11-18T02:44:10;0.73;;;0.73;;
40501;SDS011;29631;49.168;9.848;2022-11-18T02:46:41;0.60;;;0.60;;
40501;SDS011;29631;49.168;9.848;2022-11-18T02:49:20;0.60;;;0.60;;
40501;SDS011;29631;49.168;9.848;2022-11-18T02:52:00;1.02;;;0.70;;
40501;SDS011;29631;49.168;9.848;2022-11-18T02:54:28;0.70;;;0.70;;
40501;SDS011;29631;49.168;9.848;2022-11-18T02:56:55;0.70;;;0.70;;
40501;SDS011;29631;49.168;9.848;2022-11-18T02:59:23;0.70;;;0.70;;
40501;SDS011;29631;49.168;9.848;2022-11-18T03:01:52;0.70;;;0.70;;
40501;SDS011;29631;49.168;9.848;2022-11-18T03:04:18;0.60;;;0.60;;
40501;SDS011;29631;49.168;9.848;2022-11-18T03:06:48;0.93;;;0.77;;
40501;SDS011;29631;49.168;9.848;2022-11-18T03:09:35;0.70;;;0.70;;
40501;SDS011;29631;49.168;9.848;2022-11-18T03:12:29;0.70;;;0.70;;
40501;SDS011;29631;49.168;9.848;2022-11-18T03:18:15;0.98;;;0.85;;
40501;SDS011;29631;49.168;9.848;2022-11-18T03:21:06;0.52;;;0.52;;
40501;SDS011;29631;49.168;9.848;2022-11-18T03:23:49;0.70;;;0.70;;
40501;SDS011;29631;49.168;9.848;2022-11-18T03:26:45;0.82;;;0.70;;
40501;SDS011;29631;49.168;9.848;2022-11-18T03:29:18;0.70;;;0.70;;
40501;SDS011;29631;49.168;9.848;2022-11-18T03:31:52;0.55;;;0.55;;
40501;SDS011;29631;49.168;9.848;2022-11-18T03:34:28;0.60;;;0.60;;
40501;SDS011;29631;49.168;9.848;2022-11-18T03:36:59;1.05;;;0.73;;
40501;SDS011;29631;49.168;9.848;2022-11-18T03:39:30;0.80;;;0.80;;
40501;SDS011;29631;49.168;9.848;2022-11-18T03:42:08;0.85;;;0.85;;
40501;SDS011;29631;49.168;9.848;2022-11-18T03:45:02;0.60;;;0.60;;
40501;SDS011;29631;49.168;9.848;2022-11-18T03:47:38;0.50;;;0.50;;
40501;SDS011;29631;49.168;9.848;2022-11-18T03:50:52;0.70;;;0.70;;
40501;SDS011;29631;49.168;9.848;2022-11-18T03:53:03;0.52;;;0.52;;
40501;SDS011;29631;49.168;9.848;2022-11-18T03:55:32;0.80;;;0.80;;
40501;SDS011;29631;49.168;9.848;2022-11-18T03:58:08;0.60;;;0.60;;
40501;SDS011;29631;49.168;9.848;2022-11-18T04:00:44;0.60;;;0.60;;
40501;SDS011;29631;49.168;9.848;2022-11-18T04:03:15;1.60;;;0.50;;
40501;SDS011;29631;49.168;9.848;2022-11-18T04:05:41;1.08;;;0.68;;
40501;SDS011;29631;49.168;9.848;2022-11-18T04:08:15;0.63;;;0.63;;
40501;SDS011;29631;49.168;9.848;2022-11-18T04:10:49;0.75;;;0.75;;
40501;SDS011;29631;49.168;9.848;2022-11-18T04:13:26;0.60;;;0.60;;
40501;SDS011;29631;49.168;9.848;2022-11-18T04:15:57;0.50;;;0.50;;
40501;SDS011;29631;49.168;9.848;2022-11-18T04:18:23;0.70;;;0.70;;
40501;SDS011;29631;49.168;9.848;2022-11-18T04:20:48;0.60;;;0.60;;
40501;SDS011;29631;49.168;9.848;2022-11-18T04:23:14;0.55;;;0.50;;
40501;SDS011;29631;49.168;9.848;2022-11-18T04:25:40;0.82;;;0.68;;
40501;SDS011;29631;49.168;9.848;2022-11-18T04:28:06;0.60;;;0.60;;
40501;SDS011;29631;49.168;9.848;2022-11-18T04:30:31;0.90;;;0.70;;
40501;SDS011;29631;49.168;9.848;2022-11-18T04:32:58;0.50;;;0.50;;
40501;SDS011;29631;49.168;9.848;2022-11-18T04:35:24;0.57;;;0.57;;
40501;SDS011;29631;49.168;9.848;2022-11-18T04:37:50;0.40;;;0.40;;
40501;SDS011;29631;49.168;9.848;2022-11-18T04:40:16;0.60;;;0.60;;
40501;SDS011;29631;49.168;9.848;2022-11-18T04:42:42;0.60;;;0.60;;
40501;SDS011;29631;49.168;9.848;2022-11-18T04:45:08;0.70;;;0.63;;
40501;SDS011;29631;49.168;9.848;2022-11-18T04:47:34;0.77;;;0.47;;
40501;SDS011;29631;49.168;9.848;2022-11-18T04:50:00;0.60;;;0.60;;
40501;SDS011;29631;49.168;9.848;2022-11-18T04:52:27;0.73;;;0.40;;
40501;SDS011;29631;49.168;9.848;2022-11-18T04:54:52;0.60;;;0.60;;
40501;SDS011;29631;49.168;9.848;2022-11-18T04:57:18;0.65;;;0.65;;
40501;SDS011;29631;49.168;9.848;2022-11-18T04:59:44;0.50;;;0.50;;
40501;SDS011;29631;49.168;9.848;2022-11-18T05:02:09;0.52;;;0.52;;
40501;SDS011;29631;49.168;9.848;2022-11-18T05:04:36;0.40;;;0.40;;
40501;SDS011;29631;49.168;9.848;2022-11-18T05:07:02;0.60;;;0.60;;
40501;SDS011;29631;49.168;9.848;2022-11-18T05:09:30;0.47;;;0.47;;
40501;SDS011;29631;49.168;9.848;2022-11-18T05:11:56;0.60;;;0.60;;
40501;SDS011;29631;49.168;9.848;2022-11-18T05:14:40;0.60;;;0.60;;
40501;SDS011;29631;49.168;9.848;2022-11-18T05:17:07;0.50;;;0.50;;
40501;SDS011;29631;49.168;9.848;2022-11-18T05:19:35;0.85;;;0.60;;
40501;SDS011;29631;49.168;9.848;2022-11-18T05:22:03;0.70;;;0.70;;
40501;SDS011;29631;49.168;9.848;2022-11-18T05:24:29;0.60;;;0.60;;
40501;SDS011;29631;49.168;9.848;2022-11-18T05:26:54;0.60;;;0.60;;
40501;SDS011;29631;49.168;9.848;2022-11-18T05:29:20;0.55;;;0.55;;
40501;SDS011;29631;49.168;9.848;2022-11-18T05:31:47;0.35;;;0.30;;
40501;SDS011;29631;49.168;9.848;2022-11-18T05:34:13;0.50;;;0.50;;
40501;SDS011;29631;49.168;9.848;2022-11-18T05:36:40;0.60;;;0.60;;
40501;SDS011;29631;49.168;9.848;2022-11-18T05:39:06;0.50;;;0.50;;
40501;SDS011;29631;49.168;9.848;2022-11-18T05:41:31;0.60;;;0.60;;
40501;SDS011;29631;49.168;9.848;2022-11-18T05:44:16;0.60;;;0.60;;
40501;SDS011;29631;49.168;9.848;2022-11-18T05:46:42;0.60;;;0.60;;
40501;SDS011;29631;49.168;9.848;2022-11-18T05:49:07;0.40;;;0.40;;
40501;SDS011;29631;49.168;9.848;2022-11-18T05:51:34;0.70;;;0.70;;
40501;SDS011;29631;49.168;9.848;2022-11-18T05:54:01;0.70;;;0.70;;
40501;SDS011;29631;49.168;9.848;2022-11-18T05:56:38;0.35;;;0.35;;
40501;SDS011;29631;49.168;9.848;2022-11-18T05:59:07;0.60;;;0.60;;
40501;SDS011;29631;49.168;9.848;2022-11-18T06:01:44;0.50;;;0.50;;
40501;SDS011;29631;49.168;9.848;2022-11-18T06:07:20;0.38;;;0.38;;
40501;SDS011;29631;49.168;9.848;2022-11-18T06:09:53;1.15;;;0.70;;
40501;SDS011;29631;49.168;9.848;2022-11-18T06:12:23;0.57;;;0.57;;
40501;SDS011;29631;49.168;9.848;2022-11-18T06:14:55;0.60;;;0.60;;
40501;SDS011;29631;49.168;9.848;2022-11-18T06:17:28;0.57;;;0.57;;
40501;SDS011;29631;49.168;9.848;2022-11-18T06:20:22;0.63;;;0.63;;
40501;SDS011;29631;49.168;9.848;2022-11-18T06:22:49;0.60;;;0.60;;
40501;SDS011;29631;49.168;9.848;2022-11-18T06:25:18;0.60;;;0.60;;
40501;SDS011;29631;49.168;9.848;2022-11-18T06:27:45;0.77;;;0.45;;
40501;SDS011;29631;49.168;9.848;2022-11-18T06:30:12;0.70;;;0.70;;
40501;SDS011;29631;49.168;9.848;2022-11-18T06:32:38;0.52;;;0.52;;
40501;SDS011;29631;49.168;9.848;2022-11-18T06:35:04;0.60;;;0.60;;
40501;SDS011;29631;49.168;9.848;2022-11-18T06:37:30;0.50;;;0.50;;
40501;SDS011;29631;49.168;9.848;2022-11-18T06:39:56;0.40;;;0.40;;
40501;SDS011;29631;49.168;9.848;2022-11-18T06:42:22;0.45;;;0.45;;
40501;SDS011;29631;49.168;9.848;2022-11-18T06:45:06;0.55;;;0.55;;
40501;SDS011;29631;49.168;9.848;2022-11-18T06:47:33;0.50;;;0.50;;
40501;SDS011;29631;49.168;9.848;2022-11-18T06:49:58;0.52;;;0.52;;
40501;SDS011;29631;49.168;9.848;2022-11-18T06:52:24;0.45;;;0.45;;
40501;SDS011;29631;49.168;9.848;2022-11-18T06:54:50;0.50;;;0.50;;
40501;SDS011;29631;49.168;9.848;2022-11-18T06:57:15;0.60;;;0.60;;
40501;SDS011;29631;49.168;9.848;2022-11-18T06:59:41;0.60;;;0.60;;
40501;SDS011;29631;49.168;9.848;2022-11-18T07:02:07;0.43;;;0.43;;
40501;SDS011;29631;49.168;9.848;2022-11-18T07:04:32;0.70;;;0.70;;
40501;SDS011;29631;49.168;9.848;2022-11-18T07:07:03;0.75;;;0.75;;
40501;SDS011;29631;49.168;9.848;2022-11-18T07:09:30;0.60;;;0.60;;
40501;SDS011;29631;49.168;9.848;2022-11-18T07:11:56;0.57;;;0.57;;
40501;SDS011;29631;49.168;9.848;2022-11-18T07:14:22;0.60;;;0.60;;
40501;SDS011;29631;49.168;9.848;2022-11-18T07:16:48;0.50;;;0.50;;
40501;SDS011;29631;49.168;9.848;2022-11-18T07:19:13;0.65;;;0.65;;
40501;SDS011;29631;49.168;9.848;2022-11-18T07:21:39;0.40;;;0.40;;
40501;SDS011;29631;49.168;9.848;2022-11-18T07:24:07;0.60;;;0.60;;
40501;SDS011;29631;49.168;9.848;2022-11-18T07:26:36;0.75;;;0.52;;
40501;SDS011;29631;49.168;9.848;2022-11-18T07:29:02;0.70;;;0.70;;
40501;SDS011;29631;49.168;9.848;2022-11-18T07:31:28;0.63;;;0.63;;
40501;SDS011;29631;49.168;9.848;2022-11-18T07:33:55;0.75;;;0.75;;
40501;SDS011;29631;49.168;9.848;2022-11-18T07:36:22;0.80;;;0.80;;
40501;SDS011;29631;49.168;9.848;2022-11-18T07:38:50;0.90;;;0.90;;
40501;SDS011;29631;49.168;9.848;2022-11-18T07:41:17;0.75;;;0.75;;
40501;SDS011;29631;49.168;9.848;2022-11-18T07:43:46;1.15;;;0.70;;
40501;SDS011;29631;49.168;9.848;2022-11-18T07:48:41;0.57;;;0.57;;
40501;SDS011;29631;49.168;9.848;2022-11-18T07:51:09;0.90;;;0.90;;
40501;SDS011;29631;49.168;9.848;2022-11-18T07:53:36;0.65;;;0.60;;
40501;SDS011;29631;49.168;9.848;2022-11-18T07:56:02;1.30;;;0.90;;
40501;SDS011;29631;49.168;9.848;2022-11-18T07:58:29;0.70;;;0.70;;
40501;SDS011;29631;49.168;9.848;2022-11-18T08:00:55;0.70;;;0.70;;
40501;SDS011;29631;49.168;9.848;2022-11-18T08:03:24;0.85;;;0.60;;
40501;SDS011;29631;49.168;9.848;2022-11-18T08:05:59;0.60;;;0.60;;
40501;SDS011;29631;49.168;9.848;2022-11-18T08:08:26;0.85;;;0.63;;
40501;SDS011;29631;49.168;9.848;2022-11-18T08:10:55;0.50;;;0.50;;
40501;SDS011;29631;49.168;9.848;2022-11-18T08:13:23;0.40;;;0.40;;
40501;SDS011;29631;49.168;9.848;2022-11-18T08:15:50;0.60;;;0.60;;
40501;SDS011;29631;49.168;9.848;2022-11-18T08:18:17;0.60;;;0.60;;
40501;SDS011;29631;49.168;9.848;2022-11-18T08:20:42;0.47;;;0.47;;
40501;SDS011;29631;49.168;9.848;2022-11-18T08:23:09;0.60;;;0.60;;
40501;SDS011;29631;49.168;9.848;2022-11-18T08:25:36;0.60;;;0.60;;
40501;SDS011;29631;49.168;9.848;2022-11-18T08:28:02;0.52;;;0.52;;
40501;SDS011;29631;49.168;9.848;2022-11-18T08:30:27;0.52;;;0.52;;
40501;SDS011;29631;49.168;9.848;2022-11-18T08:32:53;0.60;;;0.60;;
40501;SDS011;29631;49.168;9.848;2022-11-18T08:35:19;0.60;;;0.60;;
40501;SDS011;29631;49.168;9.848;2022-11-18T08:37:45;0.40;;;0.40;;
40501;SDS011;29631;49.168;9.848;2022-11-18T08:40:11;0.70;;;0.70;;
40501;SDS011;29631;49.168;9.848;2022-11-18T08:42:37;0.60;;;0.60;;
40501;SDS011;29631;49.168;9.848;2022-11-18T08:45:03;0.60;;;0.60;;
40501;SDS011;29631;49.168;9.848;2022-11-18T08:47:32;0.88;;;0.68;;
40501;SDS011;29631;49.168;9.848;2022-11-18T08:49:59;0.73;;;0.70;;
40501;SDS011;29631;49.168;9.848;2022-11-18T08:52:25;0.60;;;0.60;;
40501;SDS011;29631;49.168;9.848;2022-11-18T08:54:50;0.50;;;0.50;;
40501;SDS011;29631;49.168;9.848;2022-11-18T08:57:16;0.50;;;0.50;;
40501;SDS011;29631;49.168;9.848;2022-11-18T08:59:42;0.50;;;0.50;;
40501;SDS011;29631;49.168;9.848;2022-11-18T09:02:18;0.60;;;0.60;;
40501;SDS011;29631;49.168;9.848;2022-11-18T09:04:46;0.50;;;0.50;;
40501;SDS011;29631;49.168;9.848;2022-11-18T09:07:12;1.52;;;0.75;;
40501;SDS011;29631;49.168;9.848;2022-11-18T09:09:38;0.80;;;0.80;;
40501;SDS011;29631;49.168;9.848;2022-11-18T09:12:04;0.90;;;0.90;;
40501;SDS011;29631;49.168;9.848;2022-11-18T09:14:30;0.70;;;0.70;;
40501;SDS011;29631;49.168;9.848;2022-11-18T09:16:57;0.98;;;0.90;;
40501;SDS011;29631;49.168;9.848;2022-11-18T09:19:23;1.00;;;1.00;;
40501;SDS011;29631;49.168;9.848;2022-11-18T09:21:49;0.90;;;0.90;;
40501;SDS011;29631;49.168;9.848;2022-11-18T09:24:15;0.82;;;0.82;;
40501;SDS011;29631;49.168;9.848;2022-11-18T09:26:41;1.10;;;1.10;;
40501;SDS011;29631;49.168;9.848;2022-11-18T09:29:06;1.13;;;0.85;;
40501;SDS011;29631;49.168;9.848;2022-11-18T09:31:32;0.80;;;0.80;;
40501;SDS011;29631;49.168;9.848;2022-11-18T09:33:59;0.70;;;0.70;;
40501;SDS011;29631;49.168;9.848;2022-11-18T09:36:25;0.77;;;0.77;;
40501;SDS011;29631;49.168;9.848;2022-11-18T09:38:52;0.77;;;0.77;;
40501;SDS011;29631;49.168;9.848;2022-11-18T09:47:24;0.82;;;0.70;;
40501;SDS011;29631;49.168;9.848;2022-11-18T09:50:05;3.25;;;2.95;;
40501;SDS011;29631;49.168;9.848;2022-11-18T09:52:41;3.33;;;3.03;;
40501;SDS011;29631;49.168;9.848;2022-11-18T09:55:25;2.20;;;2.10;;
40501;SDS011;29631;49.168;9.848;2022-11-18T09:57:55;2.80;;;2.60;;
40501;SDS011;29631;49.168;9.848;2022-11-18T10:00:24;2.03;;;1.92;;
40501;SDS011;29631;49.168;9.848;2022-11-18T10:02:56;1.60;;;1.60;;
40501;SDS011;29631;49.168;9.848;2022-11-18T10:08:17;1.30;;;1.30;;
40501;SDS011;29631;49.168;9.848;2022-11-18T10:19:51;0.73;;;0.70;;
40501;SDS011;29631;49.168;9.848;2022-11-18T10:22:47;0.60;;;0.60;;
40501;SDS011;29631;49.168;9.848;2022-11-18T10:25:23;0.70;;;0.70;;
40501;SDS011;29631;49.168;9.848;2022-11-18T10:27:49;0.70;;;0.70;;
40501;SDS011;29631;49.168;9.848;2022-11-18T10:30:22;0.63;;;0.63;;
40501;SDS011;29631;49.168;9.848;2022-11-18T10:32:54;0.68;;;0.68;;
40501;SDS011;29631;49.168;9.848;2022-11-18T10:40:46;0.70;;;0.70;;
40501;SDS011;29631;49.168;9.848;2022-11-18T10:46:22;0.80;;;0.80;;
40501;SDS011;29631;49.168;9.848;2022-11-18T10:51:35;0.90;;;0.90;;
40501;SDS011;29631;49.168;9.848;2022-11-18T10:56:42;2.47;;;2.28;;
40501;SDS011;29631;49.168;9.848;2022-11-18T10:59:27;1.50;;;1.50;;
40501;SDS011;29631;49.168;9.848;2022-11-18T11:04:49;0.80;;;0.80;;
40501;SDS011;29631;49.168;9.848;2022-11-18T11:07:25;0.70;;;0.70;;
40501;SDS011;29631;49.168;9.848;2022-11-18T11:12:31;0.80;;;0.80;;
40501;SDS011;29631;49.168;9.848;2022-11-18T11:15:12;0.90;;;0.90;;
40501;SDS011;29631;49.168;9.848;2022-11-18T11:18:05;0.80;;;0.80;;
40501;SDS011;29631;49.168;9.848;2022-11-18T11:21:09;0.98;;;0.98;;
40501;SDS011;29631;49.168;9.848;2022-11-18T11:23:40;1.20;;;1.20;;
40501;SDS011;29631;49.168;9.848;2022-11-18T11:32:24;1.02;;;1.02;;
40501;SDS011;29631;49.168;9.848;2022-11-18T11:35:24;1.40;;;1.40;;
40501;SDS011;29631;49.168;9.848;2022-11-18T11:38:17;0.98;;;0.98;;
40501;SDS011;29631;49.168;9.848;2022-11-18T11:41:22;1.13;;;1.13;;
40501;SDS011;29631;49.168;9.848;2022-11-18T11:47:16;1.10;;;1.10;;
40501;SDS011;29631;49.168;9.848;2022-11-18T11:55:54;1.15;;;1.15;;
40501;SDS011;29631;49.168;9.848;2022-11-18T12:07:18;1.35;;;1.35;;
40501;SDS011;29631;49.168;9.848;2022-11-18T12:13:05;1.50;;;1.50;;
40501;SDS011;29631;49.168;9.848;2022-11-18T12:15:56;1.40;;;1.40;;
40501;SDS011;29631;49.168;9.848;2022-11-18T12:19:19;4.18;;;3.88;;
40501;SDS011;29631;49.168;9.848;2022-11-18T12:21:50;3.03;;;2.78;;
40501;SDS011;29631;49.168;9.848;2022-11-18T12:26:48;2.13;;;2.00;;
40501;SDS011;29631;49.168;9.848;2022-11-18T12:31:59;4.40;;;4.00;;
40501;SDS011;29631;49.168;9.848;2022-11-18T12:34:35;7.10;;;5.65;;
40501;SDS011;29631;49.168;9.848;2022-11-18T12:39:53;33.10;;;16.42;;
40501;SDS011;29631;49.168;9.848;2022-11-18T12:42:36;50.42;;;21.73;;
40501;SDS011;29631;49.168;9.848;2022-11-18T12:50:49;26.20;;;11.30;;
40501;SDS011;29631;49.168;9.848;2022-11-18T12:56:48;38.45;;;15.73;;
40501;SDS011;29631;49.168;9.848;2022-11-18T12:59:00;21.73;;;11.35;;
40501;SDS011;29631;49.168;9.848;2022-11-18T13:01:30;10.88;;;6.68;;
40501;SDS011;29631;49.168;9.848;2022-11-18T13:06:33;7.05;;;5.60;;
40501;SDS011;29631;49.168;9.848;2022-11-18T13:09:14;12.13;;;9.90;;
40501;SDS011;29631;49.168;9.848;2022-11-18T13:11:51;9.90;;;8.90;;
40501;SDS011;29631;49.168;9.848;2022-11-18T13:17:38;11.05;;;8.65;;
40501;SDS011;29631;49.168;9.848;2022-11-18T13:20:29;5.95;;;5.35;;
40501;SDS011;29631;49.168;9.848;2022-11-18T13:23:20;4.63;;;4.22;;
40501;SDS011;29631;49.168;9.848;2022-11-18T13:26:23;4.07;;;3.78;;
40501;SDS011;29631;49.168;9.848;2022-11-18T13:29:02;2.78;;;2.67;;
40501;SDS011;29631;49.168;9.848;2022-11-18T13:34:28;9.45;;;6.63;;
40501;SDS011;29631;49.168;9.848;2022-11-18T13:36:56;7.15;;;6.03;;
40501;SDS011;29631;49.168;9.848;2022-11-18T13:39:28;4.68;;;4.28;;
40501;SDS011;29631;49.168;9.848;2022-11-18T13:42:04;4.47;;;4.07;;
40501;SDS011;29631;49.168;9.848;2022-11-18T13:45:01;4.10;;;3.70;;
40501;SDS011;29631;49.168;9.848;2022-11-18T13:47:36;3.47;;;3.20;;
40501;SDS011;29631;49.168;9.848;2022-11-18T13:50:32;5.03;;;4.50;;
40501;SDS011;29631;49.168;9.848;2022-11-18T13:58:44;5.05;;;4.70;;
40501;SDS011;29631;49.168;9.848;2022-11-18T14:01:24;5.43;;;5.03;;
40501;SDS011;29631;49.168;9.848;2022-11-18T14:06:43;6.63;;;6.03;;
40501;SDS011;29631;49.168;9.848;2022-11-18T14:09:23;5.07;;;4.68;;
40501;SDS011;29631;49.168;9.848;2022-11-18T14:11:58;3.03;;;2.75;;
40501;SDS011;29631;49.168;9.848;2022-11-18T14:17:04;1.80;;;1.70;;
40501;SDS011;29631;49.168;9.848;2022-11-18T14:19:46;2.00;;;1.90;;
40501;SDS011;29631;49.168;9.848;2022-11-18T14:22:16;2.13;;;2.03;;
40501;SDS011;29631;49.168;9.848;2022-11-18T14:24:55;2.88;;;2.67;;
40501;SDS011;29631;49.168;9.848;2022-11-18T14:33:19;1.30;;;1.30;;
40501;SDS011;29631;49.168;9.848;2022-11-18T14:41:03;0.80;;;0.80;;
40501;SDS011;29631;49.168;9.848;2022-11-18T14:43:33;0.90;;;0.90;;
40501;SDS011;29631;49.168;9.848;2022-11-18T14:46:02;1.02;;;1.02;;
40501;SDS011;29631;49.168;9.848;2022-11-18T14:48:39;1.10;;;1.10;;
40501;SDS011;29631;49.168;9.848;2022-11-18T14:51:05;1.50;;;1.23;;
40501;SDS011;29631;49.168;9.848;2022-11-18T14:53:31;1.27;;;1.23;;
40501;SDS011;29631;49.168;9.848;2022-11-18T14:55:57;1.73;;;1.30;;
40501;SDS011;29631;49.168;9.848;2022-11-18T14:58:24;1.33;;;1.25;;
40501;SDS011;29631;49.168;9.848;2022-11-18T15:00:50;1.90;;;1.77;;
40501;SDS011;29631;49.168;9.848;2022-11-18T15:03:16;1.30;;;1.30;;
40501;SDS011;29631;49.168;9.848;2022-11-18T15:05:41;1.30;;;1.20;;
40501;SDS011;29631;49.168;9.848;2022-11-18T15:08:07;2.17;;;1.63;;
40501;SDS011;29631;49.168;9.848;2022-11-18T15:10:33;1.65;;;1.55;;
40501;SDS011;29631;49.168;9.848;2022-11-18T15:12:59;1.95;;;1.80;;
40501;SDS011;29631;49.168;9.848;2022-11-18T15:15:25;2.67;;;1.92;;
40501;SDS011;29631;49.168;9.848;2022-11-18T15:17:51;3.28;;;2.80;;
40501;SDS011;29631;49.168;9.848;2022-11-18T15:20:18;2.20;;;2.10;;
40501;SDS011;29631;49.168;9.848;2022-11-18T15:22:46;2.30;;;2.20;;
40501;SDS011;29631;49.168;9.848;2022-11-18T15:25:11;2.92;;;2.72;;
40501;SDS011;29631;49.168;9.848;2022-11-18T15:27:37;2.90;;;2.60;;
40501;SDS011;29631;49.168;9.848;2022-11-18T15:30:03;4.18;;;3.03;;
40501;SDS011;29631;49.168;9.848;2022-11-18T15:32:30;2.45;;;2.10;;
40501;SDS011;29631;49.168;9.848;2022-11-18T15:34:56;2.75;;;2.55;;
40501;SDS011;29631;49.168;9.848;2022-11-18T15:37:21;3.63;;;3.33;;
40501;SDS011;29631;49.168;9.848;2022-11-18T15:39:47;5.80;;;3.80;;
40501;SDS011;29631;49.168;9.848;2022-11-18T15:42:18;4.35;;;3.90;;
40501;SDS011;29631;49.168;9.848;2022-11-18T15:44:44;6.45;;;5.15;;
40501;SDS011;29631;49.168;9.848;2022-11-18T15:47:10;4.40;;;4.03;;
40501;SDS011;29631;49.168;9.848;2022-11-18T15:49:36;4.53;;;4.03;;
40501;SDS011;29631;49.168;9.848;2022-11-18T15:52:07;3.45;;;3.15;;
40501;SDS011;29631;49.168;9.848;2022-11-18T15:54:35;3.67;;;3.38;;
40501;SDS011;29631;49.168;9.848;2022-11-18T15:57:01;3.17;;;2.80;;
40501;SDS011;29631;49.168;9.848;2022-11-18T15:59:27;2.00;;;1.90;;
40501;SDS011;29631;49.168;9.848;2022-11-18T16:01:53;2.00;;;1.90;;
40501;SDS011;29631;49.168;9.848;2022-11-18T16:04:20;1.80;;;1.70;;
40501;SDS011;29631;49.168;9.848;2022-11-18T16:06:46;2.30;;;2.10;;
40501;SDS011;29631;49.168;9.848;2022-11-18T16:09:12;1.50;;;1.40;;
40501;SDS011;29631;49.168;9.848;2022-11-18T16:11:39;1.40;;;1.30;;
40501;SDS011;29631;49.168;9.848;2022-11-18T16:14:26;2.13;;;1.17;;
40501;SDS011;29631;49.168;9.848;2022-11-18T16:16:52;1.08;;;1.08;;
40501;SDS011;29631;49.168;9.848;2022-11-18T16:19:21;1.17;;;1.17;;
40501;SDS011;29631;49.168;9.848;2022-11-18T16:21:53;1.20;;;1.20;;
40501;SDS011;29631;49.168;9.848;2022-11-18T16:24:21;1.17;;;1.17;;
40501;SDS011;29631;49.168;9.848;2022-11-18T16:26:50;2.53;;;1.40;;
40501;SDS011;29631;49.168;9.848;2022-11-18T16:29:16;1.00;;;1.00;;
40501;SDS011;29631;49.168;9.848;2022-11-18T16:31:43;1.10;;;1.10;;
40501;SDS011;29631;49.168;9.848;2022-11-18T16:36:52;2.05;;;1.85;;
40501;SDS011;29631;49.168;9.848;2022-11-18T16:39:21;2.28;;;2.17;;
40501;SDS011;29631;49.168;9.848;2022-11-18T16:41:49;2.70;;;2.50;;
40501;SDS011;29631;49.168;9.848;2022-11-18T16:44:17;3.30;;;3.10;;
40501;SDS011;29631;49.168;9.848;2022-11-18T16:46:47;5.05;;;3.30;;
40501;SDS011;29631;49.168;9.848;2022-11-18T16:49:17;3.25;;;3.05;;
40501;SDS011;29631;49.168;9.848;2022-11-18T16:51:45;3.22;;;3.03;;
40501;SDS011;29631;49.168;9.848;2022-11-18T16:54:14;2.88;;;2.67;;
40501;SDS011;29631;49.168;9.848;2022-11-18T16:56:48;3.28;;;3.08;;
40501;SDS011;29631;49.168;9.848;2022-11-18T16:59:16;3.00;;;2.60;;
40501;SDS011;29631;49.168;9.848;2022-11-18T17:01:47;2.58;;;2.42;;
40501;SDS011;29631;49.168;9.848;2022-11-18T17:04:17;2.63;;;2.50;;
40501;SDS011;29631;49.168;9.848;2022-11-18T17:06:44;3.28;;;2.97;;
40501;SDS011;29631;49.168;9.848;2022-11-18T17:09:12;3.28;;;2.35;;
40501;SDS011;29631;49.168;9.848;2022-11-18T17:11:50;2.78;;;2.58;;
40501;SDS011;29631;49.168;9.848;2022-11-18T17:14:18;4.32;;;2.58;;
40501;SDS011;29631;49.168;9.848;2022-11-18T17:16:44;2.42;;;2.30;;
40501;SDS011;29631;49.168;9.848;2022-11-18T17:19:12;3.95;;;2.97;;
40501;SDS011;29631;49.168;9.848;2022-11-18T17:21:40;2.92;;;2.72;;
40501;SDS011;29631;49.168;9.848;2022-11-18T17:24:06;3.35;;;2.97;;
40501;SDS011;29631;49.168;9.848;2022-11-18T17:26:32;3.33;;;3.03;;
40501;SDS011;29631;49.168;9.848;2022-11-18T17:28:58;3.08;;;2.78;;
40501;SDS011;29631;49.168;9.848;2022-11-18T17:31:24;3.40;;;3.10;;
40501;SDS011;29631;49.168;9.848;2022-11-18T17:33:51;3.92;;;3.30;;